Time;durP1;ratioP1;P1;durP2;ratioP2;P2;SDS_P1;SDS_P2;PMS_P1;PMS_P2;Temp;Humidity;BMP_temperature;BMP_pressure;BME280_temperature;BME280_humidity;BME280_pressure;Samples;Min_cycle;Max_cycle;Signal;HPM_P1;HPM_P2
2023/11/06 00:01:21;;;;;;;2.30;1.20;;;;;;;9.81;100.00;96931.02;270974;1254;22523;-84
2023/11/06 00:07:24;;;;;;;3.20;0.80;;;;;;;9.73;100.00;96945.62;272374;1267;22189;-84
2023/11/06 00:13:25;;;;;;;2.60;0.70;;;;;;;9.69;100.00;96958.26;271978;1267;22534;-83
2023/11/06 00:19:28;;;;;;;1.00;0.50;;;;;;;9.75;100.00;96967.59;270924;1260;22606;-85
2023/11/06 00:25:48;;;;;;;2.10;0.60;;;;;;;9.96;100.00;96979.70;271441;1261;23468;-84
2023/11/06 00:31:49;;;;;;;3.90;0.70;;;;;;;10.11;100.00;96988.19;270689;1267;22595;-84
2023/11/06 00:38:00;;;;;;;4.70;1.10;;;;;;;10.25;100.00;97003.23;271970;1267;22426;-84
2023/11/06 00:44:03;;;;;;;3.40;0.90;;;;;;;10.37;100.00;97018.77;273574;1267;23206;-83
2023/11/06 00:50:06;;;;;;;3.70;0.80;;;;;;;10.41;100.00;97033.86;272878;1267;23223;-83
2023/11/06 00:56:11;;;;;;;3.20;1.20;;;;;;;10.50;100.00;97043.15;273452;1267;23393;-84
2023/11/06 01:02:14;;;;;;;2.90;1.00;;;;;;;10.57;100.00;97047.32;273801;1267;23013;-84
2023/11/06 01:08:16;;;;;;;2.30;0.90;;;;;;;10.68;100.00;97049.81;273970;1267;22354;-83
2023/11/06 01:14:17;;;;;;;5.10;1.30;;;;;;;10.78;100.00;97057.52;271290;1268;22197;-84
2023/11/06 01:20:21;;;;;;;2.10;0.80;;;;;;;10.84;100.00;97067.46;273959;1267;22382;-85
2023/11/06 01:26:42;;;;;;;2.10;1.10;;;;;;;10.89;100.00;97072.84;273287;1267;23649;-85
2023/11/06 01:32:44;;;;;;;3.40;0.90;;;;;;;10.91;100.00;97088.67;272123;1267;22457;-83
2023/11/06 01:39:06;;;;;;;6.50;0.80;;;;;;;10.96;100.00;97101.10;272351;1268;22555;-85
2023/11/06 14:47:00;;;;;;;4.10;1.90;;;;;;;11.82;73.88;98223.33;265534;1305;544927;-84
2023/11/06 14:53:06;;;;;;;4.30;2.00;;;;;;;11.79;74.06;98223.27;271676;1283;22208;-85
2023/11/06 14:59:08;;;;;;;5.00;2.10;;;;;;;11.83;74.64;98232.89;271433;1278;258823;-86
2023/11/06 15:05:14;;;;;;;5.50;2.00;;;;;;;11.80;74.88;98241.76;271339;1279;22640;-86
2023/11/06 15:11:17;;;;;;;4.10;1.70;;;;;;;11.73;75.20;98247.83;270982;1271;22514;-86
2023/11/06 15:17:19;;;;;;;4.00;1.90;;;;;;;11.68;75.93;98255.20;271153;1272;22737;-85
2023/11/06 15:23:21;;;;;;;6.80;2.00;;;;;;;11.66;75.95;98261.56;270222;1272;22384;-85
2023/11/06 15:29:23;;;;;;;5.30;2.60;;;;;;;11.61;76.28;98259.46;272508;1272;22208;-86
2023/11/06 15:35:25;;;;;;;8.20;2.70;;;;;;;11.57;76.75;98266.61;273143;1271;22238;-85
2023/11/06 15:41:27;;;;;;;6.10;2.80;;;;;;;11.57;77.36;98284.14;273071;1270;22428;-85
2023/11/06 15:47:50;;;;;;;8.30;4.00;;;;;;;11.53;78.00;98299.73;273241;1271;22230;-85
2023/11/06 15:53:54;;;;;;;15.20;5.90;;;;;;;11.39;78.14;98323.35;273230;1273;23588;-85
2023/11/06 15:59:57;;;;;;;9.90;3.90;;;;;;;11.32;78.50;98331.83;273091;1272;22257;-86
2023/11/06 16:06:27;;;;;;;12.00;4.20;;;;;;;11.22;79.82;98327.15;271901;1272;22675;-85
2023/11/06 16:12:49;;;;;;;12.60;4.40;;;;;;;11.10;80.61;98333.04;273554;1266;22311;-86
2023/11/06 16:19:16;;;;;;;11.00;4.70;;;;;;;11.04;81.15;98335.63;273577;1273;22219;-85
2023/11/06 16:25:37;;;;;;;15.60;6.20;;;;;;;10.99;81.34;98338.70;273412;1272;22195;-85
2023/11/06 16:32:00;;;;;;;11.80;4.90;;;;;;;10.98;81.61;98348.95;273505;1269;22204;-86
2023/11/06 16:38:03;;;;;;;13.40;4.70;;;;;;;10.93;82.46;98351.77;272849;1270;22198;-85
2023/11/06 16:44:10;;;;;;;10.10;5.20;;;;;;;10.78;83.17;98350.20;273181;1260;22378;-85
2023/11/06 16:50:26;;;;;;;13.70;5.00;;;;;;;10.70;83.84;98359.60;273515;1271;23179;-85
2023/11/06 16:56:28;;;;;;;14.80;6.40;;;;;;;10.55;83.84;98368.42;273210;1270;22393;-85
2023/11/06 17:02:52;;;;;;;14.50;6.00;;;;;;;10.38;84.55;98371.66;272538;1272;22228;-85
2023/11/06 17:09:19;;;;;;;13.50;5.00;;;;;;;10.32;85.93;98376.20;265761;1270;10001697;-85
2023/11/06 17:15:46;;;;;;;14.00;5.80;;;;;;;10.18;86.58;98381.95;273747;1272;22187;-85
2023/11/06 17:22:27;;;;;;;15.20;6.00;;;;;;;10.02;86.78;98389.75;273096;1270;22205;-85
2023/11/06 17:28:29;;;;;;;15.10;6.10;;;;;;;9.88;87.88;98397.81;272716;1270;22696;-85
2023/11/06 17:34:31;;;;;;;14.40;6.70;;;;;;;9.87;88.19;98403.66;271771;1268;23530;-85
2023/11/06 17:40:38;;;;;;;17.90;7.40;;;;;;;9.83;88.05;98414.19;273416;1270;22468;-86
2023/11/06 17:46:45;;;;;;;17.80;7.30;;;;;;;9.73;87.70;98432.81;271752;1270;23312;-85
2023/11/06 17:52:52;;;;;;;21.70;7.50;;;;;;;9.60;87.49;98443.75;271308;1259;22599;-84
2023/11/06 17:58:55;;;;;;;20.10;7.90;;;;;;;9.46;87.50;98450.68;272418;1270;23383;-85
2023/11/06 18:04:58;;;;;;;20.00;8.10;;;;;;;9.18;87.06;98454.70;271910;1270;22569;-87
2023/11/06 18:11:00;;;;;;;23.40;9.10;;;;;;;8.97;88.04;98455.21;271020;1270;22550;-85
2023/11/06 18:17:04;;;;;;;20.40;9.10;;;;;;;8.84;87.78;98455.42;271402;1268;22522;-85
2023/11/06 18:23:06;;;;;;;24.60;10.20;;;;;;;8.67;87.84;98464.23;271028;1269;22552;-85
2023/11/06 18:29:08;;;;;;;19.00;9.80;;;;;;;8.60;88.28;98466.63;272636;1266;22327;-85
2023/11/06 18:35:11;;;;;;;23.00;10.80;;;;;;;8.60;89.15;98475.59;273360;1269;22217;-85
2023/11/06 18:41:13;;;;;;;21.40;11.20;;;;;;;8.54;89.13;98488.00;273765;1272;22407;-84
2023/11/06 18:47:40;;;;;;;26.90;10.70;;;;;;;8.50;89.32;98497.01;273547;1268;23344;-84
2023/11/06 18:54:00;;;;;;;21.70;11.70;;;;;;;8.44;89.19;98505.34;273594;1269;22384;-85
2023/11/06 19:00:03;;;;;;;22.40;11.80;;;;;;;8.31;89.35;98514.62;273670;1270;22266;-85
2023/11/06 19:06:06;;;;;;;27.90;13.50;;;;;;;8.09;89.35;98521.08;273414;1269;22284;-85
2023/11/06 19:12:08;;;;;;;24.40;11.60;;;;;;;7.88;89.56;98526.79;272236;1269;22552;-85
2023/11/06 19:18:10;;;;;;;20.10;10.70;;;;;;;7.69;89.94;98528.69;272127;1266;22664;-84
2023/11/06 19:24:38;;;;;;;29.50;11.60;;;;;;;7.51;90.41;98533.32;273088;1266;22223;-85
2023/11/06 19:30:39;;;;;;;27.50;13.50;;;;;;;7.33;90.72;98543.30;273474;1254;22222;-85
2023/11/06 19:36:42;;;;;;;25.10;11.80;;;;;;;7.16;90.97;98551.88;272051;1269;22559;-84
2023/11/06 19:42:45;;;;;;;23.60;12.30;;;;;;;7.02;91.47;98556.92;273295;1269;22272;-85
2023/11/06 19:48:46;;;;;;;22.00;9.20;;;;;;;6.84;91.74;98560.32;273453;1269;22393;-86
2023/11/06 19:54:48;;;;;;;11.90;6.30;;;;;;;6.64;91.91;98564.36;273495;1269;22198;-86
2023/11/06 20:00:51;;;;;;;14.70;7.00;;;;;;;6.43;92.17;98567.27;273879;1270;23214;-84
2023/11/06 20:06:55;;;;;;;12.80;6.90;;;;;;;6.26;92.79;98565.46;272864;1268;22754;-85
2023/11/06 20:13:02;;;;;;;18.30;6.90;;;;;;;6.15;93.30;98571.48;272180;1269;26576;-86
2023/11/06 20:19:35;;;;;;;11.30;5.90;;;;;;;6.05;93.62;98568.02;271667;1269;23968;-85
2023/11/06 20:25:39;;;;;;;12.80;7.30;;;;;;;5.93;93.94;98569.09;273549;1262;22614;-85
2023/11/06 20:32:06;;;;;;;15.20;7.70;;;;;;;5.80;94.24;98572.25;273906;1269;22181;-85
2023/11/06 20:38:09;;;;;;;14.00;8.50;;;;;;;5.67;94.57;98572.62;271098;1269;22518;-85
2023/11/06 20:44:11;;;;;;;15.40;6.90;;;;;;;5.58;94.86;98574.20;271018;1269;22544;-84
2023/11/06 20:50:25;;;;;;;18.90;7.80;;;;;;;5.41;94.86;98572.56;271020;1269;23153;-85
2023/11/06 20:56:35;;;;;;;13.00;7.30;;;;;;;5.27;95.49;98572.81;271359;1269;24275;-84
2023/11/06 21:02:41;;;;;;;;;;;;;;;5.19;95.76;98574.88;270738;1269;22510;-86
2023/11/06 21:08:43;;;;;;;18.50;9.00;;;;;;;5.13;96.47;98582.77;272909;1269;22653;-85
2023/11/06 21:15:28;;;;;;;19.10;8.30;;;;;;;5.10;96.63;98596.05;270286;1269;22719;-84
2023/11/06 21:21:32;;;;;;;22.80;10.20;;;;;;;4.97;96.58;98595.92;270976;1269;22631;-84
2023/11/06 21:27:57;;;;;;;29.80;12.30;;;;;;;4.86;96.69;98605.31;270521;1269;22555;-84
2023/11/06 21:34:21;;;;;;;29.10;13.40;;;;;;;4.71;96.73;98608.47;273723;1272;23363;-85
2023/11/06 21:40:23;;;;;;;15.20;8.20;;;;;;;4.60;97.56;98607.22;272049;1268;22194;-86
2023/11/06 21:46:25;;;;;;;16.40;8.20;;;;;;;4.52;97.73;98606.39;273109;1268;22614;-85
2023/11/06 21:52:29;;;;;;;18.60;9.40;;;;;;;4.41;97.75;98608.44;270584;1269;22574;-85
2023/11/06 21:58:31;;;;;;;25.00;11.50;;;;;;;4.34;98.39;98612.34;270192;1269;24696;-84
2023/11/06 22:04:55;;;;;;;20.30;9.50;;;;;;;4.32;98.89;98612.98;270148;1269;23879;-85
2023/11/06 22:10:57;;;;;;;20.40;9.90;;;;;;;4.25;98.74;98618.42;272463;1269;22581;-85
2023/11/06 22:17:22;;;;;;;19.10;9.50;;;;;;;4.18;98.84;98627.52;273775;1259;22502;-85
2023/11/06 22:23:44;;;;;;;28.20;12.00;;;;;;;4.10;98.93;98631.75;271417;1253;22583;-84
2023/11/06 22:29:53;;;;;;;23.20;10.30;;;;;;;4.02;99.42;98634.98;269661;1269;22561;-85
2023/11/06 22:35:55;;;;;;;19.90;9.80;;;;;;;3.94;99.38;98634.28;271416;1252;22394;-85
2023/11/06 22:42:01;;;;;;;17.30;8.70;;;;;;;3.79;99.28;98627.09;271432;1269;22314;-85
2023/11/06 22:48:03;;;;;;;15.50;7.80;;;;;;;3.69;99.70;98630.92;273759;1269;22195;-85
2023/11/06 22:54:05;;;;;;;18.50;8.80;;;;;;;3.66;99.97;98636.47;273604;1268;22957;-85
2023/11/06 23:00:13;;;;;;;32.30;18.40;;;;;;;3.68;100.00;98640.48;273865;1269;22198;-85
2023/11/06 23:06:24;;;;;;;38.90;20.80;;;;;;;3.66;100.00;98636.94;271488;1268;22200;-84
2023/11/06 23:12:26;;;;;;;27.30;16.30;;;;;;;3.64;100.00;98641.67;273433;1269;22476;-85
2023/11/06 23:18:29;;;;;;;29.60;15.20;;;;;;;3.66;100.00;98640.65;272346;1269;22544;-85
2023/11/06 23:24:45;;;;;;;22.40;12.90;;;;;;;3.67;100.00;98644.03;269926;1269;22553;-85
2023/11/06 23:30:46;;;;;;;36.60;18.60;;;;;;;3.56;100.00;98652.80;271627;1269;22541;-83
2023/11/06 23:36:48;;;;;;;29.90;17.10;;;;;;;3.43;100.00;98662.94;271243;1269;22653;-85
2023/11/06 23:42:50;;;;;;;27.80;17.10;;;;;;;3.41;100.00;98665.10;271777;1269;22657;-85
2023/11/06 23:48:52;;;;;;;28.80;16.00;;;;;;;3.44;100.00;98661.34;269970;1269;25229;-85
2023/11/06 23:54:54;;;;;;;17.90;11.10;;;;;;;3.40;100.00;98663.69;270574;1269;25347;-85
